Ana Sayfa
METAR-TAF:

METAR-TAF

Havaalanları :

Niamey, Nijer

Enlem: 13-29N, Boylam: 002-10E, yükseklik: 223 m

Güncel hava durumu gözlemi

Rapor saat 21:00 UTC de 1 saat ve 10 dakika önce yapıldı.
Rüzgar doğudan 5 kt
Sıcaklık 37°C
Nem 8%
Basınç 1008 hPa
Görüş mesafesi: 6000 m

METAR: DRRN 202100Z 09005KT 6000 NSC 37/M03 Q1008 NOSIG

Saat: 23:10 (22:10 UTC)

Tahmin

Rapor saat 17:00 UTC de 5 saat ve 10 dakika önce yapıldı.
Ayın 20'si saat 18 UTC'den ayın 21'si saat 24 UTC'ye kadar geçerli Tahmin
Rüzgar doğu/güneydoğudan 6 kt
Görüş mesafesi: 6000 m
Geçici
ayın 20'si saat 18 UTC'den ayın 20'si saat 21 UTC'ye kadar
Görüş mesafesi: 4500 m
yaygın toz
Geçici
ayın 21'si saat 06 UTC'den ayın 21'si saat 09 UTC'ye kadar
Görüş mesafesi: 3500 m
yaygın toz

TAF: DRRN 201700Z 2018/2124 12006KT 6000 NSC TEMPO 2018/2021 4500 DU TEMPO 2106/2109 3500 DU

4.000'den fazla havaalanı için hava durumu gözlemleri ve tahminleri (METAR ve TAF raporları).

Kullanılabilir istasyonlar harita üzerinde sarı ve kırmızı noktalarla gösterilir.

İstasyonun adını görmek için fareyi noktanın üzerinde gezdirin.

Sonrasında hava gözlem ve tahminlerini görmek için tıklayın.

Haritayı değiştirmek için: yaklaştırmak için siyah artı işaretli yeşil düğmeye ve uzaklaştırmak için de eksi işaretli düğmeye hızla tıklayın; bitişik haritalar için yeşil okları kullanın.


METAR-TAF: